world map with AXA marked

AXA - Airport

This information may not be accurate or current and is not valid for navigation or flight planning. No warranty of fitness for any purpose is made or implied.

flag of Anguilla

Donate via PayPal

Additional information is available on the NEW Great Circle Mapper

Location
City:  The Valley, Anguilla, Anguilla
Name:Clayton J. Lloyd International (Anguilla Wallblake Airport)
ICAO / IATA:TQPF / AXA

Details
Type:Airport (Aerodrome, Airfield)
Latitude:18°12'17"N (18.204722)
Longitude:63°03'14"W (-63.053888)
Elevation:128 ft (39 m)
Runways:1
Longest:5463 × 98 ft (1665 × 30 m)

Time
Timezone:UTC+30:08 (DST+32:08)
Local Time:

Weather
METAR:TQPF  210300Z 10012KT 9999 FEW020 25/21 Q1018
TAF:TQPF  (expired)

Related Locations
Nearby:
Farthest:WHM: 12260 mi / 19730 km
Wickham, WA, AU

Find:

   beyond  
but within

Other Information
Maps:
Sources:

  

Airport Diagram

Airport diagram for AXA

Airport diagram PDF

 


Great Circle Mapper   Great Circle Mapper
Great Circle Mapper FAQ   Great Circle Mapper FAQ
  Karl's Home Page
KLSē   KLSē Home
   GC on Facebook
Airlines of the World   Airlines of the World
Donate via PayPal


Copyright © 2004-2018, Karl L. Swartz. All rights reserved.
All trademarks mentioned herein belong to their respective owners.

Please see credits for attribution and copyright information.

Karl Swartz <karl@kls2.com>
  Powered by FreeBSD
Valid HTML 4.01!
Labeled with ICRA
hCard Microformat
Geo Microformat